sensor_id;sensor_type;location;lat;lon;timestamp;P1;durP1;ratioP1;P2;durP2;ratioP2
80711;SDS011;70078;51.596;5.678;2024-03-22T00:03:35;31.23;;;16.90;;
80711;SDS011;70078;51.596;5.678;2024-03-22T00:08:25;38.25;;;16.92;;
80711;SDS011;70078;51.596;5.678;2024-03-22T00:13:16;33.58;;;16.73;;
80711;SDS011;70078;51.596;5.678;2024-03-22T00:18:09;39.60;;;17.42;;
80711;SDS011;70078;51.596;5.678;2024-03-22T00:23:00;34.28;;;16.98;;
80711;SDS011;70078;51.596;5.678;2024-03-22T00:25:25;37.15;;;18.77;;
80711;SDS011;70078;51.596;5.678;2024-03-22T00:30:16;34.28;;;18.63;;
80711;SDS011;70078;51.596;5.678;2024-03-22T00:35:09;35.88;;;18.17;;
80711;SDS011;70078;51.596;5.678;2024-03-22T00:40:00;35.00;;;17.10;;
80711;SDS011;70078;51.596;5.678;2024-03-22T00:44:50;35.70;;;16.83;;
80711;SDS011;70078;51.596;5.678;2024-03-22T00:49:41;37.80;;;18.57;;
80711;SDS011;70078;51.596;5.678;2024-03-22T00:54:31;38.25;;;18.58;;
80711;SDS011;70078;51.596;5.678;2024-03-22T00:59:22;33.58;;;18.83;;
80711;SDS011;70078;51.596;5.678;2024-03-22T01:01:48;37.45;;;19.70;;
80711;SDS011;70078;51.596;5.678;2024-03-22T01:04:13;33.95;;;15.95;;
80711;SDS011;70078;51.596;5.678;2024-03-22T01:09:05;34.65;;;18.13;;
80711;SDS011;70078;51.596;5.678;2024-03-22T01:11:31;35.75;;;19.52;;
80711;SDS011;70078;51.596;5.678;2024-03-22T01:16:21;38.30;;;18.83;;
80711;SDS011;70078;51.596;5.678;2024-03-22T01:18:47;33.53;;;19.50;;
80711;SDS011;70078;51.596;5.678;2024-03-22T01:21:13;35.95;;;17.13;;
80711;SDS011;70078;51.596;5.678;2024-03-22T01:26:04;33.92;;;18.25;;
80711;SDS011;70078;51.596;5.678;2024-03-22T01:30:54;31.20;;;16.83;;
80711;SDS011;70078;51.596;5.678;2024-03-22T01:35:45;39.47;;;20.52;;
80711;SDS011;70078;51.596;5.678;2024-03-22T01:38:10;36.83;;;18.30;;
80711;SDS011;70078;51.596;5.678;2024-03-22T01:43:01;39.05;;;19.42;;
80711;SDS011;70078;51.596;5.678;2024-03-22T01:45:27;37.45;;;18.75;;
80711;SDS011;70078;51.596;5.678;2024-03-22T01:47:57;33.70;;;19.40;;
80711;SDS011;70078;51.596;5.678;2024-03-22T01:50:24;37.42;;;19.38;;
80711;SDS011;70078;51.596;5.678;2024-03-22T01:55:15;32.80;;;17.55;;
80711;SDS011;70078;51.596;5.678;2024-03-22T01:57:41;37.25;;;19.52;;
80711;SDS011;70078;51.596;5.678;2024-03-22T02:00:08;35.78;;;19.73;;
80711;SDS011;70078;51.596;5.678;2024-03-22T02:02:34;36.80;;;19.90;;
80711;SDS011;70078;51.596;5.678;2024-03-22T02:07:36;34.72;;;17.33;;
80711;SDS011;70078;51.596;5.678;2024-03-22T02:12:27;35.30;;;17.63;;
80711;SDS011;70078;51.596;5.678;2024-03-22T02:14:52;35.40;;;18.65;;
80711;SDS011;70078;51.596;5.678;2024-03-22T02:19:43;34.77;;;19.60;;
80711;SDS011;70078;51.596;5.678;2024-03-22T02:24:33;32.03;;;16.10;;
80711;SDS011;70078;51.596;5.678;2024-03-22T02:29:24;34.07;;;18.57;;
80711;SDS011;70078;51.596;5.678;2024-03-22T02:34:14;29.65;;;17.13;;
80711;SDS011;70078;51.596;5.678;2024-03-22T02:39:05;31.93;;;16.20;;
80711;SDS011;70078;51.596;5.678;2024-03-22T02:43:55;30.40;;;16.80;;
80711;SDS011;70078;51.596;5.678;2024-03-22T02:48:46;26.35;;;15.70;;
80711;SDS011;70078;51.596;5.678;2024-03-22T02:53:36;31.27;;;17.17;;
80711;SDS011;70078;51.596;5.678;2024-03-22T02:58:27;27.73;;;15.73;;
80711;SDS011;70078;51.596;5.678;2024-03-22T03:03:18;29.63;;;15.50;;
80711;SDS011;70078;51.596;5.678;2024-03-22T03:08:09;31.25;;;16.27;;
80711;SDS011;70078;51.596;5.678;2024-03-22T03:13:00;32.33;;;16.98;;
80711;SDS011;70078;51.596;5.678;2024-03-22T03:17:50;28.37;;;15.73;;
80711;SDS011;70078;51.596;5.678;2024-03-22T03:20:16;30.02;;;15.77;;
80711;SDS011;70078;51.596;5.678;2024-03-22T03:25:07;27.15;;;16.02;;
80711;SDS011;70078;51.596;5.678;2024-03-22T03:29:59;26.13;;;15.23;;
80711;SDS011;70078;51.596;5.678;2024-03-22T03:32:24;26.08;;;15.93;;
80711;SDS011;70078;51.596;5.678;2024-03-22T03:37:15;29.95;;;16.30;;
80711;SDS011;70078;51.596;5.678;2024-03-22T03:42:06;28.30;;;15.00;;
80711;SDS011;70078;51.596;5.678;2024-03-22T03:46:56;26.67;;;15.33;;
80711;SDS011;70078;51.596;5.678;2024-03-22T03:51:47;24.55;;;13.65;;
80711;SDS011;70078;51.596;5.678;2024-03-22T03:54:12;24.85;;;14.40;;
80711;SDS011;70078;51.596;5.678;2024-03-22T03:59:03;26.67;;;15.52;;
80711;SDS011;70078;51.596;5.678;2024-03-22T04:03:53;28.87;;;15.80;;
80711;SDS011;70078;51.596;5.678;2024-03-22T04:08:44;24.77;;;14.50;;
80711;SDS011;70078;51.596;5.678;2024-03-22T04:13:36;27.00;;;16.27;;
80711;SDS011;70078;51.596;5.678;2024-03-22T04:18:27;23.17;;;13.13;;
80711;SDS011;70078;51.596;5.678;2024-03-22T04:23:18;30.83;;;17.00;;
80711;SDS011;70078;51.596;5.678;2024-03-22T04:28:16;25.20;;;13.80;;
80711;SDS011;70078;51.596;5.678;2024-03-22T04:33:07;28.87;;;16.03;;
80711;SDS011;70078;51.596;5.678;2024-03-22T04:37:57;20.80;;;13.07;;
80711;SDS011;70078;51.596;5.678;2024-03-22T04:42:48;28.97;;;16.10;;
80711;SDS011;70078;51.596;5.678;2024-03-22T04:47:38;29.05;;;15.93;;
80711;SDS011;70078;51.596;5.678;2024-03-22T04:50:05;23.80;;;14.43;;
80711;SDS011;70078;51.596;5.678;2024-03-22T04:54:56;25.50;;;14.50;;
80711;SDS011;70078;51.596;5.678;2024-03-22T04:59:47;27.67;;;15.83;;
80711;SDS011;70078;51.596;5.678;2024-03-22T05:04:37;22.73;;;14.05;;
80711;SDS011;70078;51.596;5.678;2024-03-22T05:07:03;30.20;;;17.52;;
80711;SDS011;70078;51.596;5.678;2024-03-22T05:11:53;25.40;;;16.05;;
80711;SDS011;70078;51.596;5.678;2024-03-22T05:16:44;27.60;;;15.70;;
80711;SDS011;70078;51.596;5.678;2024-03-22T05:21:35;24.45;;;14.48;;
80711;SDS011;70078;51.596;5.678;2024-03-22T05:26:25;25.37;;;15.00;;
80711;SDS011;70078;51.596;5.678;2024-03-22T05:31:17;19.40;;;12.40;;
80711;SDS011;70078;51.596;5.678;2024-03-22T05:36:08;26.07;;;15.53;;
80711;SDS011;70078;51.596;5.678;2024-03-22T05:40:58;23.80;;;15.40;;
80711;SDS011;70078;51.596;5.678;2024-03-22T05:43:28;32.38;;;17.52;;
80711;SDS011;70078;51.596;5.678;2024-03-22T05:48:19;22.97;;;13.97;;
80711;SDS011;70078;51.596;5.678;2024-03-22T05:53:10;19.13;;;11.55;;
80711;SDS011;70078;51.596;5.678;2024-03-22T05:58:01;23.83;;;13.90;;
80711;SDS011;70078;51.596;5.678;2024-03-22T06:02:52;23.60;;;15.13;;
80711;SDS011;70078;51.596;5.678;2024-03-22T06:05:17;28.92;;;18.02;;
80711;SDS011;70078;51.596;5.678;2024-03-22T06:10:08;21.10;;;11.60;;
80711;SDS011;70078;51.596;5.678;2024-03-22T06:12:37;25.75;;;14.02;;
80711;SDS011;70078;51.596;5.678;2024-03-22T06:17:31;22.25;;;13.60;;
80711;SDS011;70078;51.596;5.678;2024-03-22T06:19:58;24.73;;;14.27;;
80711;SDS011;70078;51.596;5.678;2024-03-22T06:24:48;23.00;;;12.80;;
80711;SDS011;70078;51.596;5.678;2024-03-22T06:29:39;22.38;;;13.63;;
80711;SDS011;70078;51.596;5.678;2024-03-22T06:34:30;20.55;;;12.63;;
80711;SDS011;70078;51.596;5.678;2024-03-22T06:39:20;21.83;;;12.97;;
80711;SDS011;70078;51.596;5.678;2024-03-22T06:44:11;19.75;;;11.55;;
80711;SDS011;70078;51.596;5.678;2024-03-22T06:46:39;21.77;;;12.35;;
80711;SDS011;70078;51.596;5.678;2024-03-22T06:49:05;20.90;;;12.25;;
80711;SDS011;70078;51.596;5.678;2024-03-22T06:53:55;25.58;;;13.45;;
80711;SDS011;70078;51.596;5.678;2024-03-22T06:56:21;21.17;;;11.93;;
80711;SDS011;70078;51.596;5.678;2024-03-22T07:01:11;21.67;;;12.17;;
80711;SDS011;70078;51.596;5.678;2024-03-22T07:06:02;19.40;;;10.80;;
80711;SDS011;70078;51.596;5.678;2024-03-22T07:10:53;17.70;;;10.90;;
80711;SDS011;70078;51.596;5.678;2024-03-22T07:13:19;19.35;;;11.00;;
80711;SDS011;70078;51.596;5.678;2024-03-22T07:15:45;18.48;;;10.73;;
80711;SDS011;70078;51.596;5.678;2024-03-22T07:18:12;20.08;;;11.32;;
80711;SDS011;70078;51.596;5.678;2024-03-22T07:23:03;14.85;;;8.95;;
80711;SDS011;70078;51.596;5.678;2024-03-22T07:25:29;15.93;;;10.40;;
80711;SDS011;70078;51.596;5.678;2024-03-22T07:30:20;17.75;;;10.23;;
80711;SDS011;70078;51.596;5.678;2024-03-22T07:32:46;18.63;;;10.18;;
80711;SDS011;70078;51.596;5.678;2024-03-22T07:35:12;19.15;;;11.27;;
80711;SDS011;70078;51.596;5.678;2024-03-22T07:40:03;20.10;;;11.55;;
80711;SDS011;70078;51.596;5.678;2024-03-22T07:42:30;16.40;;;8.77;;
80711;SDS011;70078;51.596;5.678;2024-03-22T07:47:21;18.67;;;9.98;;
80711;SDS011;70078;51.596;5.678;2024-03-22T07:52:11;18.13;;;11.47;;
80711;SDS011;70078;51.596;5.678;2024-03-22T07:57:02;19.30;;;11.90;;
80711;SDS011;70078;51.596;5.678;2024-03-22T07:59:29;22.15;;;10.77;;
80711;SDS011;70078;51.596;5.678;2024-03-22T08:01:54;19.40;;;10.57;;
80711;SDS011;70078;51.596;5.678;2024-03-22T08:04:20;23.27;;;13.57;;
80711;SDS011;70078;51.596;5.678;2024-03-22T08:09:10;18.65;;;10.95;;
80711;SDS011;70078;51.596;5.678;2024-03-22T08:11:36;19.80;;;12.75;;
80711;SDS011;70078;51.596;5.678;2024-03-22T08:14:01;22.17;;;13.57;;
80711;SDS011;70078;51.596;5.678;2024-03-22T08:16:28;24.20;;;16.08;;
80711;SDS011;70078;51.596;5.678;2024-03-22T08:18:54;22.27;;;13.38;;
80711;SDS011;70078;51.596;5.678;2024-03-22T08:21:19;17.58;;;10.70;;
80711;SDS011;70078;51.596;5.678;2024-03-22T08:23:45;18.17;;;11.65;;
80711;SDS011;70078;51.596;5.678;2024-03-22T08:26:11;20.55;;;13.15;;
80711;SDS011;70078;51.596;5.678;2024-03-22T08:31:03;15.82;;;10.82;;
80711;SDS011;70078;51.596;5.678;2024-03-22T08:33:29;23.20;;;16.33;;
80711;SDS011;70078;51.596;5.678;2024-03-22T08:38:20;22.70;;;14.48;;
80711;SDS011;70078;51.596;5.678;2024-03-22T08:43:11;20.50;;;12.48;;
80711;SDS011;70078;51.596;5.678;2024-03-22T08:48:01;18.37;;;14.13;;
80711;SDS011;70078;51.596;5.678;2024-03-22T08:52:52;21.85;;;13.88;;
80711;SDS011;70078;51.596;5.678;2024-03-22T08:57:43;19.35;;;12.77;;
80711;SDS011;70078;51.596;5.678;2024-03-22T09:02:34;21.17;;;13.38;;
80711;SDS011;70078;51.596;5.678;2024-03-22T09:07:25;19.33;;;10.98;;
80711;SDS011;70078;51.596;5.678;2024-03-22T09:12:15;16.50;;;12.25;;
80711;SDS011;70078;51.596;5.678;2024-03-22T09:17:07;17.77;;;11.88;;
80711;SDS011;70078;51.596;5.678;2024-03-22T09:21:57;19.07;;;13.27;;
80711;SDS011;70078;51.596;5.678;2024-03-22T09:26:48;18.10;;;11.73;;
80711;SDS011;70078;51.596;5.678;2024-03-22T09:31:38;16.75;;;11.02;;
80711;SDS011;70078;51.596;5.678;2024-03-22T09:34:04;18.05;;;11.40;;
80711;SDS011;70078;51.596;5.678;2024-03-22T09:38:59;14.45;;;9.65;;
80711;SDS011;70078;51.596;5.678;2024-03-22T09:43:54;17.15;;;10.68;;
80711;SDS011;70078;51.596;5.678;2024-03-22T09:46:23;18.30;;;12.13;;
80711;SDS011;70078;51.596;5.678;2024-03-22T09:48:49;16.02;;;11.02;;
80711;SDS011;70078;51.596;5.678;2024-03-22T09:53:42;19.67;;;12.20;;
80711;SDS011;70078;51.596;5.678;2024-03-22T09:56:09;19.13;;;11.95;;
80711;SDS011;70078;51.596;5.678;2024-03-22T09:58:39;17.77;;;11.32;;
80711;SDS011;70078;51.596;5.678;2024-03-22T10:01:05;20.70;;;12.13;;
80711;SDS011;70078;51.596;5.678;2024-03-22T10:03:30;22.20;;;12.35;;
80711;SDS011;70078;51.596;5.678;2024-03-22T10:05:56;16.95;;;10.73;;
80711;SDS011;70078;51.596;5.678;2024-03-22T10:08:21;16.67;;;8.82;;
80711;SDS011;70078;51.596;5.678;2024-03-22T10:10:47;16.52;;;10.57;;
80711;SDS011;70078;51.596;5.678;2024-03-22T10:13:12;19.42;;;10.30;;
80711;SDS011;70078;51.596;5.678;2024-03-22T10:15:37;15.20;;;10.77;;
80711;SDS011;70078;51.596;5.678;2024-03-22T10:20:28;13.13;;;9.13;;
80711;SDS011;70078;51.596;5.678;2024-03-22T10:25:24;20.45;;;8.95;;
80711;SDS011;70078;51.596;5.678;2024-03-22T10:27:56;14.98;;;9.75;;
80711;SDS011;70078;51.596;5.678;2024-03-22T10:30:22;17.60;;;9.27;;
80711;SDS011;70078;51.596;5.678;2024-03-22T10:32:48;17.48;;;11.00;;
80711;SDS011;70078;51.596;5.678;2024-03-22T10:35:14;14.20;;;9.75;;
80711;SDS011;70078;51.596;5.678;2024-03-22T10:37:40;16.40;;;10.23;;
80711;SDS011;70078;51.596;5.678;2024-03-22T10:40:06;14.50;;;10.60;;
80711;SDS011;70078;51.596;5.678;2024-03-22T10:42:36;16.63;;;10.73;;
80711;SDS011;70078;51.596;5.678;2024-03-22T10:45:03;16.27;;;10.98;;
80711;SDS011;70078;51.596;5.678;2024-03-22T10:47:29;15.68;;;9.90;;
80711;SDS011;70078;51.596;5.678;2024-03-22T10:50:04;14.95;;;10.32;;
80711;SDS011;70078;51.596;5.678;2024-03-22T10:52:31;16.73;;;11.05;;
80711;SDS011;70078;51.596;5.678;2024-03-22T10:55:00;15.40;;;8.98;;
80711;SDS011;70078;51.596;5.678;2024-03-22T10:57:29;16.70;;;9.65;;
80711;SDS011;70078;51.596;5.678;2024-03-22T10:59:55;18.52;;;10.75;;
80711;SDS011;70078;51.596;5.678;2024-03-22T11:02:23;15.40;;;10.40;;
80711;SDS011;70078;51.596;5.678;2024-03-22T11:04:58;15.68;;;10.23;;
80711;SDS011;70078;51.596;5.678;2024-03-22T11:07:27;19.10;;;11.35;;
80711;SDS011;70078;51.596;5.678;2024-03-22T11:09:55;22.10;;;11.25;;
80711;SDS011;70078;51.596;5.678;2024-03-22T11:12:21;15.98;;;11.30;;
80711;SDS011;70078;51.596;5.678;2024-03-22T11:14:55;16.15;;;11.02;;
80711;SDS011;70078;51.596;5.678;2024-03-22T11:17:20;17.50;;;11.43;;
80711;SDS011;70078;51.596;5.678;2024-03-22T11:19:50;19.27;;;12.43;;
80711;SDS011;70078;51.596;5.678;2024-03-22T11:22:18;15.23;;;10.65;;
80711;SDS011;70078;51.596;5.678;2024-03-22T11:24:43;16.60;;;11.18;;
80711;SDS011;70078;51.596;5.678;2024-03-22T11:27:09;18.30;;;11.82;;
80711;SDS011;70078;51.596;5.678;2024-03-22T11:29:36;17.20;;;12.00;;
80711;SDS011;70078;51.596;5.678;2024-03-22T11:32:06;15.00;;;11.80;;
80711;SDS011;70078;51.596;5.678;2024-03-22T11:34:35;15.70;;;11.57;;
80711;SDS011;70078;51.596;5.678;2024-03-22T11:37:01;17.85;;;10.60;;
80711;SDS011;70078;51.596;5.678;2024-03-22T11:41:53;23.58;;;14.25;;
80711;SDS011;70078;51.596;5.678;2024-03-22T11:44:18;13.90;;;9.23;;
80711;SDS011;70078;51.596;5.678;2024-03-22T11:46:44;12.43;;;8.90;;
80711;SDS011;70078;51.596;5.678;2024-03-22T11:49:10;10.60;;;6.43;;
80711;SDS011;70078;51.596;5.678;2024-03-22T11:54:02;10.50;;;7.40;;
80711;SDS011;70078;51.596;5.678;2024-03-22T11:56:28;16.10;;;10.80;;
80711;SDS011;70078;51.596;5.678;2024-03-22T11:58:59;15.10;;;9.15;;
80711;SDS011;70078;51.596;5.678;2024-03-22T12:01:25;12.82;;;8.57;;
80711;SDS011;70078;51.596;5.678;2024-03-22T12:03:51;10.98;;;7.97;;
80711;SDS011;70078;51.596;5.678;2024-03-22T12:06:16;12.52;;;7.45;;
80711;SDS011;70078;51.596;5.678;2024-03-22T12:11:07;10.90;;;7.18;;
80711;SDS011;70078;51.596;5.678;2024-03-22T12:13:33;15.05;;;7.20;;
80711;SDS011;70078;51.596;5.678;2024-03-22T12:18:24;7.80;;;6.60;;
80711;SDS011;70078;51.596;5.678;2024-03-22T12:20:49;9.77;;;7.03;;
80711;SDS011;70078;51.596;5.678;2024-03-22T12:25:40;11.15;;;7.22;;
80711;SDS011;70078;51.596;5.678;2024-03-22T12:28:05;10.52;;;6.38;;
80711;SDS011;70078;51.596;5.678;2024-03-22T12:30:31;9.95;;;6.72;;
80711;SDS011;70078;51.596;5.678;2024-03-22T12:32:56;10.50;;;6.47;;
80711;SDS011;70078;51.596;5.678;2024-03-22T12:37:46;8.32;;;5.55;;
80711;SDS011;70078;51.596;5.678;2024-03-22T12:42:39;7.75;;;5.40;;
80711;SDS011;70078;51.596;5.678;2024-03-22T12:47:30;10.57;;;5.82;;
80711;SDS011;70078;51.596;5.678;2024-03-22T12:49:56;8.65;;;5.50;;
80711;SDS011;70078;51.596;5.678;2024-03-22T12:52:21;8.98;;;5.88;;
80711;SDS011;70078;51.596;5.678;2024-03-22T12:57:12;7.60;;;5.60;;
80711;SDS011;70078;51.596;5.678;2024-03-22T13:02:02;8.88;;;6.18;;
80711;SDS011;70078;51.596;5.678;2024-03-22T13:04:28;9.40;;;6.72;;
80711;SDS011;70078;51.596;5.678;2024-03-22T13:06:53;12.32;;;5.95;;
80711;SDS011;70078;51.596;5.678;2024-03-22T13:11:46;8.45;;;5.95;;
80711;SDS011;70078;51.596;5.678;2024-03-22T13:16:38;7.93;;;6.10;;
80711;SDS011;70078;51.596;5.678;2024-03-22T13:19:03;8.48;;;5.72;;
80711;SDS011;70078;51.596;5.678;2024-03-22T13:21:30;11.40;;;5.57;;
80711;SDS011;70078;51.596;5.678;2024-03-22T13:26:21;9.93;;;6.55;;
80711;SDS011;70078;51.596;5.678;2024-03-22T13:28:46;8.88;;;5.30;;
80711;SDS011;70078;51.596;5.678;2024-03-22T13:33:37;12.10;;;6.47;;
80711;SDS011;70078;51.596;5.678;2024-03-22T13:38:29;7.57;;;5.65;;
80711;SDS011;70078;51.596;5.678;2024-03-22T13:43:25;8.82;;;6.38;;
80711;SDS011;70078;51.596;5.678;2024-03-22T13:45:52;11.30;;;7.15;;
80711;SDS011;70078;51.596;5.678;2024-03-22T13:48:21;10.60;;;7.10;;
80711;SDS011;70078;51.596;5.678;2024-03-22T13:50:53;7.85;;;5.03;;
80711;SDS011;70078;51.596;5.678;2024-03-22T13:53:19;9.52;;;6.50;;
80711;SDS011;70078;51.596;5.678;2024-03-22T13:55:47;10.52;;;6.35;;
80711;SDS011;70078;51.596;5.678;2024-03-22T13:58:13;8.32;;;5.78;;
80711;SDS011;70078;51.596;5.678;2024-03-22T14:03:04;9.68;;;5.72;;
80711;SDS011;70078;51.596;5.678;2024-03-22T14:05:30;8.38;;;6.15;;
80711;SDS011;70078;51.596;5.678;2024-03-22T14:10:21;10.50;;;5.78;;
80711;SDS011;70078;51.596;5.678;2024-03-22T14:12:47;9.63;;;6.15;;
80711;SDS011;70078;51.596;5.678;2024-03-22T14:15:13;9.32;;;5.97;;
80711;SDS011;70078;51.596;5.678;2024-03-22T14:20:05;8.17;;;5.37;;
80711;SDS011;70078;51.596;5.678;2024-03-22T14:22:36;6.60;;;4.20;;
80711;SDS011;70078;51.596;5.678;2024-03-22T14:25:02;9.30;;;5.35;;
80711;SDS011;70078;51.596;5.678;2024-03-22T14:29:54;6.80;;;4.73;;
80711;SDS011;70078;51.596;5.678;2024-03-22T14:34:44;6.20;;;4.03;;
80711;SDS011;70078;51.596;5.678;2024-03-22T14:39:37;6.63;;;4.53;;
80711;SDS011;70078;51.596;5.678;2024-03-22T14:44:28;8.95;;;5.80;;
80711;SDS011;70078;51.596;5.678;2024-03-22T14:49:19;9.75;;;5.57;;
80711;SDS011;70078;51.596;5.678;2024-03-22T14:51:45;8.30;;;5.60;;
80711;SDS011;70078;51.596;5.678;2024-03-22T14:56:36;8.07;;;5.53;;
80711;SDS011;70078;51.596;5.678;2024-03-22T15:01:27;6.68;;;4.63;;
80711;SDS011;70078;51.596;5.678;2024-03-22T15:06:18;8.57;;;5.50;;
80711;SDS011;70078;51.596;5.678;2024-03-22T15:08:44;7.30;;;5.03;;
80711;SDS011;70078;51.596;5.678;2024-03-22T15:11:09;11.07;;;5.43;;
80711;SDS011;70078;51.596;5.678;2024-03-22T15:16:00;7.38;;;5.43;;
80711;SDS011;70078;51.596;5.678;2024-03-22T15:18:25;7.68;;;4.00;;
80711;SDS011;70078;51.596;5.678;2024-03-22T15:20:53;9.07;;;5.30;;
80711;SDS011;70078;51.596;5.678;2024-03-22T15:25:47;7.65;;;5.70;;
80711;SDS011;70078;51.596;5.678;2024-03-22T15:28:14;8.55;;;6.00;;
80711;SDS011;70078;51.596;5.678;2024-03-22T15:30:39;9.35;;;6.15;;
80711;SDS011;70078;51.596;5.678;2024-03-22T15:33:07;8.63;;;5.57;;
80711;SDS011;70078;51.596;5.678;2024-03-22T15:35:33;8.35;;;5.05;;
80711;SDS011;70078;51.596;5.678;2024-03-22T15:40:24;9.97;;;6.70;;
80711;SDS011;70078;51.596;5.678;2024-03-22T15:45:15;8.35;;;5.35;;
80711;SDS011;70078;51.596;5.678;2024-03-22T15:50:06;8.43;;;5.72;;
80711;SDS011;70078;51.596;5.678;2024-03-22T15:54:57;9.10;;;6.35;;
80711;SDS011;70078;51.596;5.678;2024-03-22T15:57:23;8.30;;;5.22;;
80711;SDS011;70078;51.596;5.678;2024-03-22T16:02:13;8.57;;;5.45;;
80711;SDS011;70078;51.596;5.678;2024-03-22T16:07:04;6.82;;;5.10;;
80711;SDS011;70078;51.596;5.678;2024-03-22T16:09:31;6.47;;;3.70;;
80711;SDS011;70078;51.596;5.678;2024-03-22T16:14:21;12.27;;;5.57;;
80711;SDS011;70078;51.596;5.678;2024-03-22T16:16:47;9.60;;;5.38;;
80711;SDS011;70078;51.596;5.678;2024-03-22T16:19:12;6.65;;;4.38;;
80711;SDS011;70078;51.596;5.678;2024-03-22T16:21:38;8.13;;;4.50;;
80711;SDS011;70078;51.596;5.678;2024-03-22T16:26:31;9.25;;;4.82;;
80711;SDS011;70078;51.596;5.678;2024-03-22T16:28:57;6.88;;;4.32;;
80711;SDS011;70078;51.596;5.678;2024-03-22T16:33:48;7.40;;;3.45;;
80711;SDS011;70078;51.596;5.678;2024-03-22T16:36:14;8.07;;;4.45;;
80711;SDS011;70078;51.596;5.678;2024-03-22T16:38:39;9.27;;;4.53;;
80711;SDS011;70078;51.596;5.678;2024-03-22T16:41:05;8.63;;;4.85;;
80711;SDS011;70078;51.596;5.678;2024-03-22T16:45:56;6.70;;;3.50;;
80711;SDS011;70078;51.596;5.678;2024-03-22T16:50:46;7.47;;;4.13;;
80711;SDS011;70078;51.596;5.678;2024-03-22T16:55:37;7.22;;;4.22;;
80711;SDS011;70078;51.596;5.678;2024-03-22T17:00:29;10.30;;;5.20;;
80711;SDS011;70078;51.596;5.678;2024-03-22T17:05:20;9.53;;;4.90;;
80711;SDS011;70078;51.596;5.678;2024-03-22T17:10:13;9.32;;;4.70;;
80711;SDS011;70078;51.596;5.678;2024-03-22T17:12:40;10.93;;;5.35;;
80711;SDS011;70078;51.596;5.678;2024-03-22T17:15:06;9.10;;;4.85;;
80711;SDS011;70078;51.596;5.678;2024-03-22T17:19:57;8.73;;;4.53;;
80711;SDS011;70078;51.596;5.678;2024-03-22T17:24:48;13.45;;;5.82;;
80711;SDS011;70078;51.596;5.678;2024-03-22T17:29:41;8.73;;;5.05;;
80711;SDS011;70078;51.596;5.678;2024-03-22T17:34:32;11.20;;;4.72;;
80711;SDS011;70078;51.596;5.678;2024-03-22T17:36:59;11.63;;;5.57;;
80711;SDS011;70078;51.596;5.678;2024-03-22T17:39:25;11.38;;;5.55;;
80711;SDS011;70078;51.596;5.678;2024-03-22T17:44:16;10.10;;;5.35;;
80711;SDS011;70078;51.596;5.678;2024-03-22T17:49:06;12.87;;;7.00;;
80711;SDS011;70078;51.596;5.678;2024-03-22T17:53:57;9.90;;;5.72;;
80711;SDS011;70078;51.596;5.678;2024-03-22T17:56:23;13.05;;;6.45;;
80711;SDS011;70078;51.596;5.678;2024-03-22T17:58:48;12.35;;;6.90;;
80711;SDS011;70078;51.596;5.678;2024-03-22T18:01:13;15.43;;;9.88;;
80711;SDS011;70078;51.596;5.678;2024-03-22T18:03:39;13.48;;;8.93;;
80711;SDS011;70078;51.596;5.678;2024-03-22T18:08:31;13.50;;;8.48;;
80711;SDS011;70078;51.596;5.678;2024-03-22T18:10:56;11.85;;;7.18;;
80711;SDS011;70078;51.596;5.678;2024-03-22T18:13:23;15.90;;;8.07;;
80711;SDS011;70078;51.596;5.678;2024-03-22T18:18:13;9.20;;;6.40;;
80711;SDS011;70078;51.596;5.678;2024-03-22T18:23:05;8.70;;;2.78;;
80711;SDS011;70078;51.596;5.678;2024-03-22T18:25:30;9.75;;;3.70;;
80711;SDS011;70078;51.596;5.678;2024-03-22T18:30:21;7.35;;;3.33;;
80711;SDS011;70078;51.596;5.678;2024-03-22T18:35:11;6.57;;;3.67;;
80711;SDS011;70078;51.596;5.678;2024-03-22T18:40:02;9.60;;;3.33;;
80711;SDS011;70078;51.596;5.678;2024-03-22T18:42:28;11.20;;;3.58;;
80711;SDS011;70078;51.596;5.678;2024-03-22T18:47:19;11.88;;;3.78;;
80711;SDS011;70078;51.596;5.678;2024-03-22T18:52:10;8.70;;;4.13;;
80711;SDS011;70078;51.596;5.678;2024-03-22T18:57:01;8.32;;;3.40;;
80711;SDS011;70078;51.596;5.678;2024-03-22T19:01:52;8.68;;;3.33;;
80711;SDS011;70078;51.596;5.678;2024-03-22T19:06:43;10.15;;;3.38;;
80711;SDS011;70078;51.596;5.678;2024-03-22T19:11:34;11.18;;;3.85;;
80711;SDS011;70078;51.596;5.678;2024-03-22T19:13:59;10.27;;;3.38;;
80711;SDS011;70078;51.596;5.678;2024-03-22T19:18:51;7.07;;;3.00;;
80711;SDS011;70078;51.596;5.678;2024-03-22T19:21:17;13.05;;;3.63;;
80711;SDS011;70078;51.596;5.678;2024-03-22T19:26:08;12.10;;;3.30;;
80711;SDS011;70078;51.596;5.678;2024-03-22T19:31:01;12.45;;;4.07;;
80711;SDS011;70078;51.596;5.678;2024-03-22T19:33:27;10.95;;;3.00;;
80711;SDS011;70078;51.596;5.678;2024-03-22T19:38:18;11.20;;;4.03;;
80711;SDS011;70078;51.596;5.678;2024-03-22T19:40:43;10.38;;;3.45;;
80711;SDS011;70078;51.596;5.678;2024-03-22T19:45:34;9.82;;;4.97;;
80711;SDS011;70078;51.596;5.678;2024-03-22T19:50:25;13.60;;;3.78;;
80711;SDS011;70078;51.596;5.678;2024-03-22T19:55:16;12.20;;;4.45;;
80711;SDS011;70078;51.596;5.678;2024-03-22T20:00:06;13.07;;;4.80;;
80711;SDS011;70078;51.596;5.678;2024-03-22T20:02:32;12.45;;;4.45;;
80711;SDS011;70078;51.596;5.678;2024-03-22T20:04:59;12.52;;;4.22;;
80711;SDS011;70078;51.596;5.678;2024-03-22T20:09:49;13.85;;;4.03;;
80711;SDS011;70078;51.596;5.678;2024-03-22T20:14:40;11.77;;;4.13;;
80711;SDS011;70078;51.596;5.678;2024-03-22T20:19:31;10.77;;;4.47;;
80711;SDS011;70078;51.596;5.678;2024-03-22T20:24:21;8.82;;;3.88;;
80711;SDS011;70078;51.596;5.678;2024-03-22T20:29:12;7.25;;;3.25;;
80711;SDS011;70078;51.596;5.678;2024-03-22T20:31:38;10.55;;;3.55;;
80711;SDS011;70078;51.596;5.678;2024-03-22T20:36:32;11.02;;;4.30;;
